createdAt,value
2023-05-09T00:02:02.206Z,16.61
2023-05-09T00:04:29.249Z,16.61
2023-05-09T00:06:55.873Z,16.60
2023-05-09T00:09:22.350Z,16.60
2023-05-09T00:11:48.835Z,16.60
2023-05-09T00:14:15.688Z,16.59
2023-05-09T00:16:42.239Z,16.59
2023-05-09T00:19:08.737Z,16.58
2023-05-09T00:21:35.801Z,16.59
2023-05-09T00:24:02.336Z,16.57
2023-05-09T00:26:28.873Z,16.57
2023-05-09T00:28:55.474Z,16.56
2023-05-09T00:31:22.020Z,16.56
2023-05-09T00:33:48.603Z,16.56
2023-05-09T00:36:15.086Z,16.55
2023-05-09T00:38:41.568Z,16.56
2023-05-09T00:41:08.306Z,16.55
2023-05-09T00:43:34.812Z,16.53
2023-05-09T00:46:01.474Z,16.53
2023-05-09T00:48:28.078Z,16.54
2023-05-09T00:50:54.607Z,16.53
2023-05-09T00:53:21.413Z,16.52
2023-05-09T00:55:48.373Z,16.52
2023-05-09T00:58:15.052Z,16.53
2023-05-09T01:00:43.019Z,16.52
2023-05-09T01:03:09.867Z,16.51
2023-05-09T01:05:44.901Z,16.52
2023-05-09T01:08:21.661Z,16.49
2023-05-09T01:11:33.431Z,16.48
2023-05-09T01:14:14.771Z,16.47
2023-05-09T01:17:02.064Z,16.49
2023-05-09T01:19:43.024Z,16.49
2023-05-09T01:22:14.216Z,16.48
2023-05-09T01:24:52.726Z,16.48
2023-05-09T01:27:39.383Z,16.48
2023-05-09T01:30:08.255Z,16.47
2023-05-09T01:32:37.999Z,16.48
2023-05-09T01:35:06.365Z,16.47
2023-05-09T01:37:41.822Z,16.46
2023-05-09T01:40:15.369Z,16.45
2023-05-09T01:42:49.965Z,16.44
2023-05-09T01:45:17.719Z,16.42
2023-05-09T01:47:44.884Z,16.43
2023-05-09T01:50:12.819Z,16.44
2023-05-09T01:52:42.530Z,16.45
2023-05-09T01:55:11.257Z,16.46
2023-05-09T01:57:39.168Z,16.49
2023-05-09T02:00:09.040Z,16.52
2023-05-09T02:02:36.351Z,16.54
2023-05-09T02:05:03.301Z,16.54
2023-05-09T02:07:30.763Z,16.57
2023-05-09T02:09:58.312Z,16.58
2023-05-09T02:12:24.960Z,16.58
2023-05-09T02:14:51.573Z,16.59
2023-05-09T02:17:19.205Z,16.57
2023-05-09T02:19:45.671Z,16.54
2023-05-09T02:22:13.433Z,16.55
2023-05-09T02:24:42.913Z,16.53
2023-05-09T02:27:11.727Z,16.54
2023-05-09T02:29:55.064Z,16.55
2023-05-09T02:32:27.050Z,16.58
2023-05-09T02:34:54.381Z,16.60
2023-05-09T02:37:21.469Z,16.61
2023-05-09T02:39:48.335Z,16.62
2023-05-09T02:42:21.584Z,16.63
2023-05-09T02:44:48.067Z,16.59
2023-05-09T02:47:14.578Z,16.62
2023-05-09T02:49:41.047Z,16.63
2023-05-09T02:52:07.541Z,16.60
2023-05-09T02:54:34.043Z,16.60
2023-05-09T02:57:00.626Z,16.61
2023-05-09T02:59:27.549Z,16.59
2023-05-09T03:01:54.222Z,16.57
2023-05-09T03:04:20.893Z,16.53
2023-05-09T03:06:47.365Z,16.52
2023-05-09T03:09:13.908Z,16.52
2023-05-09T03:11:40.592Z,16.51
2023-05-09T03:14:08.503Z,16.50
2023-05-09T03:16:35.047Z,16.50
2023-05-09T03:19:01.663Z,16.48
2023-05-09T03:21:28.165Z,16.48
2023-05-09T03:23:54.691Z,16.48
2023-05-09T03:26:21.627Z,16.47
2023-05-09T03:28:48.961Z,16.46
2023-05-09T03:31:16.157Z,16.45
2023-05-09T03:33:42.793Z,16.45
2023-05-09T03:36:09.608Z,16.45
2023-05-09T03:38:36.167Z,16.44
2023-05-09T03:41:02.684Z,16.44
2023-05-09T03:43:29.173Z,16.45
2023-05-09T03:45:56.066Z,16.43
2023-05-09T03:48:22.564Z,16.41
2023-05-09T03:50:49.069Z,16.39
2023-05-09T03:53:15.601Z,16.38
2023-05-09T03:55:42.107Z,16.40
2023-05-09T03:58:08.711Z,16.40
2023-05-09T04:00:35.235Z,16.38
2023-05-09T04:03:01.936Z,16.36
2023-05-09T04:05:28.541Z,16.37
2023-05-09T04:07:55.126Z,16.36
2023-05-09T04:10:21.710Z,16.36
2023-05-09T04:12:48.244Z,16.36
2023-05-09T04:15:15.076Z,16.35
2023-05-09T04:17:41.802Z,16.35
2023-05-09T04:20:08.818Z,16.34
2023-05-09T04:22:36.251Z,16.34
2023-05-09T04:25:04.118Z,16.34
2023-05-09T04:27:30.623Z,16.34
2023-05-09T04:29:57.319Z,16.32
2023-05-09T04:32:23.868Z,16.32
2023-05-09T04:34:50.370Z,16.31
2023-05-09T04:37:17.142Z,16.29
2023-05-09T04:39:43.605Z,16.29
2023-05-09T04:42:10.069Z,16.30
2023-05-09T04:44:36.559Z,16.30
2023-05-09T04:47:03.036Z,16.31
2023-05-09T04:49:29.547Z,16.30
2023-05-09T04:51:56.032Z,16.29
2023-05-09T04:54:22.531Z,16.29
2023-05-09T04:56:50.631Z,16.31
2023-05-09T04:59:17.368Z,16.31
2023-05-09T05:01:43.991Z,16.30
2023-05-09T05:04:10.782Z,16.29
2023-05-09T05:06:37.360Z,16.31
2023-05-09T05:09:03.848Z,16.29
2023-05-09T05:11:30.341Z,16.26
2023-05-09T05:13:56.900Z,16.25
2023-05-09T05:16:23.544Z,16.25
2023-05-09T05:18:50.082Z,16.25
2023-05-09T05:21:16.614Z,16.26
2023-05-09T05:23:43.314Z,16.25
2023-05-09T05:26:09.810Z,16.26
2023-05-09T05:28:36.343Z,16.27
2023-05-09T05:31:02.857Z,16.27
2023-05-09T05:33:29.361Z,16.27
2023-05-09T05:35:55.927Z,16.27
2023-05-09T05:38:22.526Z,16.27
2023-05-09T05:40:49.002Z,16.27
2023-05-09T05:43:15.603Z,16.26
2023-05-09T05:45:42.191Z,16.28
2023-05-09T05:48:08.703Z,16.27
2023-05-09T05:50:36.687Z,16.28
2023-05-09T05:53:03.351Z,16.27
2023-05-09T05:55:29.856Z,16.25
2023-05-09T05:57:56.413Z,16.24
2023-05-09T06:00:22.968Z,16.24
2023-05-09T06:02:49.518Z,16.23
2023-05-09T06:05:16.461Z,16.21
2023-05-09T06:07:44.301Z,16.22
2023-05-09T06:10:11.107Z,16.24
2023-05-09T06:12:37.823Z,16.27
2023-05-09T06:15:07.654Z,16.28
2023-05-09T06:17:34.660Z,16.30
2023-05-09T06:20:01.221Z,16.29
2023-05-09T06:22:27.682Z,16.31
2023-05-09T06:24:54.197Z,16.32
2023-05-09T06:27:20.837Z,16.35
2023-05-09T06:29:47.313Z,16.36
2023-05-09T06:32:13.881Z,16.37
2023-05-09T06:34:41.924Z,16.38
2023-05-09T06:37:08.427Z,16.38
2023-05-09T06:39:35.022Z,16.37
2023-05-09T06:42:01.500Z,16.37
2023-05-09T06:44:28.211Z,16.38
2023-05-09T06:46:54.706Z,16.38
2023-05-09T06:49:21.211Z,16.38
2023-05-09T06:51:47.691Z,16.40
2023-05-09T06:54:14.232Z,16.41
2023-05-09T06:56:40.834Z,16.43
2023-05-09T06:59:07.849Z,16.44
2023-05-09T07:01:34.511Z,16.44
2023-05-09T07:04:01.023Z,16.46
2023-05-09T07:06:27.502Z,16.48
2023-05-09T07:08:53.987Z,16.52
2023-05-09T07:11:21.113Z,16.53
2023-05-09T07:13:47.735Z,16.55
2023-05-09T07:16:14.350Z,16.56
2023-05-09T07:18:40.822Z,16.54
2023-05-09T07:21:07.708Z,16.54
2023-05-09T07:23:34.206Z,16.54
2023-05-09T07:26:01.422Z,16.55
2023-05-09T07:28:27.934Z,16.55
2023-05-09T07:30:57.284Z,16.54
2023-05-09T07:33:23.810Z,16.55
2023-05-09T07:35:50.459Z,16.56
2023-05-09T07:38:16.947Z,16.55
2023-05-09T07:40:43.453Z,16.54
2023-05-09T07:43:10.039Z,16.55
2023-05-09T07:45:36.605Z,16.54
2023-05-09T07:48:03.282Z,16.54
2023-05-09T07:50:30.330Z,16.56
2023-05-09T07:52:56.880Z,16.55
2023-05-09T07:55:23.371Z,16.56
2023-05-09T07:57:49.869Z,16.56
2023-05-09T08:00:16.753Z,16.57
2023-05-09T08:02:43.412Z,16.57
2023-05-09T08:05:14.354Z,16.57
2023-05-09T08:07:41.013Z,16.58
2023-05-09T08:10:08.997Z,16.58
2023-05-09T08:12:35.606Z,16.59
2023-05-09T08:15:02.508Z,16.58
2023-05-09T08:17:29.135Z,16.61
2023-05-09T08:19:55.866Z,16.63
2023-05-09T08:22:22.406Z,16.64
2023-05-09T08:24:48.941Z,16.66
2023-05-09T08:27:15.649Z,16.68
2023-05-09T08:29:42.882Z,16.71
2023-05-09T08:32:09.764Z,16.72
2023-05-09T08:34:36.488Z,16.72
2023-05-09T08:37:04.010Z,16.75
2023-05-09T08:39:31.060Z,16.77
2023-05-09T08:42:02.128Z,16.78
2023-05-09T08:44:30.698Z,16.79
2023-05-09T08:47:01.091Z,16.79
2023-05-09T08:49:28.406Z,16.79
2023-05-09T08:51:56.044Z,16.81
2023-05-09T08:54:23.136Z,16.81
2023-05-09T08:56:50.989Z,16.80
2023-05-09T08:59:18.857Z,16.80
2023-05-09T09:01:46.129Z,16.79
2023-05-09T09:04:12.876Z,16.78
2023-05-09T09:06:40.584Z,16.81
2023-05-09T09:09:11.779Z,16.84
2023-05-09T09:11:40.558Z,16.86
2023-05-09T09:14:15.294Z,16.89
2023-05-09T09:16:44.602Z,16.91
2023-05-09T09:19:16.494Z,16.92
2023-05-09T09:21:46.790Z,16.94
2023-05-09T09:24:14.061Z,16.95
2023-05-09T09:26:47.188Z,16.97
2023-05-09T09:29:14.552Z,16.97
2023-05-09T09:31:44.805Z,16.98
2023-05-09T09:34:19.065Z,16.99
2023-05-09T09:36:46.884Z,16.99
2023-05-09T09:39:14.337Z,17.00
2023-05-09T09:41:41.406Z,17.01
2023-05-09T09:44:08.577Z,17.02
2023-05-09T09:46:54.401Z,17.02
2023-05-09T09:49:23.324Z,17.03
2023-05-09T09:51:54.901Z,17.04
2023-05-09T09:54:22.220Z,17.05
2023-05-09T09:56:56.628Z,17.06
2023-05-09T09:59:25.672Z,17.07
2023-05-09T10:02:08.274Z,17.07
2023-05-09T10:04:39.337Z,17.07
2023-05-09T10:07:07.772Z,17.07
2023-05-09T10:09:35.891Z,17.12
2023-05-09T10:12:04.687Z,17.18
2023-05-09T10:14:35.189Z,17.21
2023-05-09T10:17:04.414Z,17.24
2023-05-09T10:19:32.154Z,17.23
2023-05-09T10:22:10.056Z,17.24
2023-05-09T10:24:47.151Z,17.24
2023-05-09T10:27:15.068Z,17.23
2023-05-09T10:29:46.458Z,17.24
2023-05-09T10:32:24.336Z,17.24
2023-05-09T10:34:54.589Z,17.24
2023-05-09T10:37:22.163Z,17.24
2023-05-09T10:39:53.136Z,17.25
2023-05-09T10:42:20.428Z,17.26
2023-05-09T10:44:47.878Z,17.25
2023-05-09T10:47:15.099Z,17.26
2023-05-09T10:49:43.165Z,17.27
2023-05-09T10:52:09.746Z,17.28
2023-05-09T10:54:37.428Z,17.28
2023-05-09T10:57:05.567Z,17.29
2023-05-09T10:59:37.351Z,17.30
2023-05-09T11:02:05.290Z,17.30
2023-05-09T11:04:32.642Z,17.32
2023-05-09T11:07:00.796Z,17.33
2023-05-09T11:09:28.434Z,17.35
2023-05-09T11:12:09.162Z,17.35
2023-05-09T11:14:35.688Z,17.36
2023-05-09T11:17:04.399Z,17.36
2023-05-09T11:19:46.807Z,17.36
2023-05-09T11:22:21.486Z,17.36
2023-05-09T11:24:54.214Z,17.38
2023-05-09T11:27:24.479Z,17.36
2023-05-09T11:29:58.673Z,17.37
2023-05-09T11:32:32.237Z,17.36
2023-05-09T11:35:07.568Z,17.35
2023-05-09T11:37:34.216Z,17.36
2023-05-09T11:40:04.880Z,17.35
2023-05-09T11:42:32.647Z,17.36
2023-05-09T11:44:59.196Z,17.36
2023-05-09T11:47:26.481Z,17.35
2023-05-09T11:49:53.060Z,17.36
2023-05-09T11:52:20.122Z,17.40
2023-05-09T11:54:46.600Z,17.42
2023-05-09T11:57:17.357Z,17.44
2023-05-09T11:59:45.461Z,17.43
2023-05-09T12:02:12.921Z,17.41
2023-05-09T12:04:39.661Z,17.43
2023-05-09T12:07:06.553Z,17.41
2023-05-09T12:09:35.201Z,17.41
2023-05-09T12:12:01.723Z,17.42
2023-05-09T12:14:28.797Z,17.42
2023-05-09T12:16:55.386Z,17.43
2023-05-09T12:19:23.896Z,17.43
2023-05-09T12:21:55.850Z,17.41
2023-05-09T12:24:22.357Z,17.40
2023-05-09T12:26:50.075Z,17.40
2023-05-09T12:29:17.684Z,17.40
2023-05-09T12:31:44.462Z,17.39
2023-05-09T12:34:11.266Z,17.40
2023-05-09T12:36:38.247Z,17.39
2023-05-09T12:39:13.162Z,17.40
2023-05-09T12:42:00.387Z,17.41
2023-05-09T12:44:29.664Z,17.41
2023-05-09T12:47:02.862Z,17.41
2023-05-09T12:49:31.054Z,17.43
2023-05-09T12:52:02.273Z,17.42
2023-05-09T12:54:30.357Z,17.43
2023-05-09T12:56:58.547Z,17.42
2023-05-09T12:59:28.838Z,17.42
2023-05-09T13:02:00.099Z,17.41
2023-05-09T13:04:28.506Z,17.43
2023-05-09T13:06:57.466Z,17.43
2023-05-09T13:09:25.799Z,17.44
2023-05-09T13:11:52.909Z,17.45
2023-05-09T13:14:21.893Z,17.45
2023-05-09T13:16:48.780Z,17.46
2023-05-09T13:19:15.338Z,17.46
2023-05-09T13:21:41.942Z,17.47
2023-05-09T13:24:08.480Z,17.48
2023-05-09T13:26:35.084Z,17.49
2023-05-09T13:29:01.628Z,17.49
2023-05-09T13:31:28.344Z,17.51
2023-05-09T13:33:54.881Z,17.50
2023-05-09T13:36:21.435Z,17.52
2023-05-09T13:38:48.186Z,17.54
2023-05-09T13:41:19.987Z,17.55
2023-05-09T13:43:46.714Z,17.55
2023-05-09T13:46:13.577Z,17.53
2023-05-09T13:48:40.278Z,17.52
2023-05-09T13:51:07.876Z,17.51
2023-05-09T13:53:35.055Z,17.50
2023-05-09T13:56:02.736Z,17.50
2023-05-09T13:58:29.336Z,17.49
2023-05-09T14:00:55.846Z,17.48
2023-05-09T14:03:22.417Z,17.49
2023-05-09T14:05:49.509Z,17.48
2023-05-09T14:08:16.925Z,17.47
2023-05-09T14:10:44.842Z,17.48
2023-05-09T14:13:12.501Z,17.48
2023-05-09T14:15:40.216Z,17.48
2023-05-09T14:18:06.830Z,17.47
2023-05-09T14:20:36.358Z,17.48
2023-05-09T14:23:03.422Z,17.47
2023-05-09T14:25:29.929Z,17.49
2023-05-09T14:27:56.407Z,17.49
2023-05-09T14:30:23.139Z,17.49
2023-05-09T14:32:49.610Z,17.50
2023-05-09T14:35:16.245Z,17.51
2023-05-09T14:37:42.834Z,17.51
2023-05-09T14:40:09.819Z,17.52
2023-05-09T14:42:37.013Z,17.53
2023-05-09T14:45:04.641Z,17.55
2023-05-09T14:47:31.128Z,17.56
2023-05-09T14:49:57.721Z,17.58
2023-05-09T14:52:24.261Z,17.58
2023-05-09T14:54:50.831Z,17.59
2023-05-09T14:57:17.355Z,17.70
2023-05-09T14:59:44.087Z,17.85
2023-05-09T15:02:10.553Z,18.04
2023-05-09T15:04:37.107Z,18.26
2023-05-09T15:07:03.649Z,18.50
2023-05-09T15:09:30.123Z,18.71
2023-05-09T15:11:56.670Z,18.89
2023-05-09T15:14:23.142Z,19.07
2023-05-09T15:16:52.204Z,19.23
2023-05-09T15:19:19.164Z,19.30
2023-05-09T15:21:45.735Z,19.46
2023-05-09T15:24:12.722Z,19.49
2023-05-09T15:26:39.295Z,19.42
2023-05-09T15:29:05.781Z,19.31
2023-05-09T15:31:33.149Z,19.20
2023-05-09T15:33:59.851Z,19.11
2023-05-09T15:36:30.064Z,19.05
2023-05-09T15:38:56.734Z,19.00
2023-05-09T15:41:23.214Z,18.92
2023-05-09T15:43:49.861Z,18.89
2023-05-09T15:46:17.027Z,18.85
2023-05-09T15:48:43.723Z,18.82
2023-05-09T15:51:10.283Z,18.78
2023-05-09T15:53:36.904Z,18.74
2023-05-09T15:56:03.810Z,18.71
2023-05-09T15:58:30.725Z,18.69
2023-05-09T16:00:57.291Z,18.67
2023-05-09T16:03:25.225Z,18.62
2023-05-09T16:05:52.825Z,18.60
2023-05-09T16:08:19.351Z,18.59
2023-05-09T16:10:48.994Z,18.57
2023-05-09T16:13:19.129Z,18.53
2023-05-09T16:15:47.821Z,18.52
2023-05-09T16:18:14.364Z,18.48
2023-05-09T16:20:41.976Z,18.47
2023-05-09T16:23:08.520Z,18.47
2023-05-09T16:25:35.793Z,18.43
2023-05-09T16:28:02.397Z,18.40
2023-05-09T16:30:28.914Z,18.38
2023-05-09T16:32:55.492Z,18.36
2023-05-09T16:35:22.023Z,18.36
2023-05-09T16:37:48.570Z,18.32
2023-05-09T16:40:15.417Z,18.31
2023-05-09T16:42:42.979Z,18.29
2023-05-09T16:45:09.982Z,18.28
2023-05-09T16:47:36.876Z,18.25
2023-05-09T16:50:04.687Z,18.23
2023-05-09T16:52:31.313Z,18.22
2023-05-09T16:54:59.342Z,18.22
2023-05-09T16:57:26.073Z,18.19
2023-05-09T16:59:53.883Z,18.18
2023-05-09T17:02:20.397Z,18.16
2023-05-09T17:04:47.077Z,18.15
2023-05-09T17:07:14.508Z,18.14
2023-05-09T17:09:41.388Z,18.12
2023-05-09T17:12:08.099Z,18.12
2023-05-09T17:14:34.598Z,18.09
2023-05-09T17:17:01.340Z,18.09
2023-05-09T17:19:28.171Z,18.09
2023-05-09T17:21:56.029Z,18.09
2023-05-09T17:24:22.556Z,18.06
2023-05-09T17:26:50.210Z,18.06
2023-05-09T17:29:16.704Z,18.04
2023-05-09T17:31:43.186Z,18.03
2023-05-09T17:34:09.679Z,18.03
2023-05-09T17:36:36.227Z,18.02
2023-05-09T17:39:02.822Z,17.99
2023-05-09T17:41:29.290Z,17.99
2023-05-09T17:43:58.726Z,17.98
2023-05-09T17:46:25.297Z,17.97
2023-05-09T17:48:51.914Z,17.96
2023-05-09T17:51:18.419Z,17.95
2023-05-09T17:53:44.923Z,17.96
2023-05-09T17:56:11.475Z,17.95
2023-05-09T17:58:37.974Z,17.95
2023-05-09T18:01:05.405Z,17.93
2023-05-09T18:03:32.397Z,17.93
2023-05-09T18:06:00.385Z,17.93
2023-05-09T18:08:27.140Z,17.91
2023-05-09T18:10:56.473Z,17.91
2023-05-09T18:13:23.120Z,17.89
2023-05-09T18:15:49.702Z,17.89
2023-05-09T18:18:16.312Z,17.87
2023-05-09T18:20:43.053Z,17.85
2023-05-09T18:23:10.363Z,17.84
2023-05-09T18:25:38.620Z,17.84
2023-05-09T18:28:05.394Z,17.83
2023-05-09T18:30:31.987Z,17.80
2023-05-09T18:33:00.367Z,17.81
2023-05-09T18:35:26.968Z,17.79
2023-05-09T18:37:53.743Z,17.80
2023-05-09T18:40:20.204Z,17.79
2023-05-09T18:42:47.319Z,17.78
2023-05-09T18:45:14.064Z,17.77
2023-05-09T18:47:40.591Z,17.77
2023-05-09T18:50:07.704Z,17.75
2023-05-09T18:52:34.427Z,17.75
2023-05-09T18:55:00.938Z,17.74
2023-05-09T18:57:28.279Z,17.74
2023-05-09T18:59:55.066Z,17.73
2023-05-09T19:02:22.478Z,17.72
2023-05-09T19:04:50.469Z,17.73
2023-05-09T19:07:17.180Z,17.71
2023-05-09T19:09:43.726Z,17.72
2023-05-09T19:12:10.257Z,17.70
2023-05-09T19:14:37.938Z,17.71
2023-05-09T19:17:05.712Z,17.71
2023-05-09T19:19:32.489Z,17.71
2023-05-09T19:22:00.051Z,17.69
2023-05-09T19:24:26.466Z,17.69
2023-05-09T19:26:53.045Z,17.71
2023-05-09T19:29:19.536Z,17.68
2023-05-09T19:31:46.020Z,17.69
2023-05-09T19:34:13.544Z,17.68
2023-05-09T19:36:40.007Z,17.68
2023-05-09T19:39:08.693Z,17.68
2023-05-09T19:41:35.302Z,17.70
2023-05-09T19:44:01.950Z,17.69
2023-05-09T19:46:28.513Z,17.70
2023-05-09T19:48:55.052Z,17.72
2023-05-09T19:51:21.759Z,17.72
2023-05-09T19:53:48.300Z,17.72
2023-05-09T19:56:14.885Z,17.73
2023-05-09T19:58:41.441Z,17.73
2023-05-09T20:01:08.037Z,17.74
2023-05-09T20:03:38.521Z,17.75
2023-05-09T20:06:05.761Z,17.81
2023-05-09T20:08:32.307Z,17.89
2023-05-09T20:11:00.103Z,18.03
2023-05-09T20:13:27.446Z,18.12
2023-05-09T20:15:54.042Z,18.26
2023-05-09T20:18:20.696Z,18.48
2023-05-09T20:20:47.207Z,18.61
2023-05-09T20:23:13.719Z,18.76
2023-05-09T20:25:40.376Z,18.85
2023-05-09T20:28:06.859Z,18.88
2023-05-09T20:30:33.413Z,18.85
2023-05-09T20:33:01.146Z,18.78
2023-05-09T20:35:27.966Z,18.72
2023-05-09T20:37:54.669Z,18.67
2023-05-09T20:40:21.260Z,18.60
2023-05-09T20:42:47.772Z,18.53
2023-05-09T20:45:14.262Z,18.47
2023-05-09T20:47:40.865Z,18.43
2023-05-09T20:50:07.949Z,18.39
2023-05-09T20:52:34.463Z,18.34
2023-05-09T20:55:01.948Z,18.32
2023-05-09T20:57:28.629Z,18.28
2023-05-09T20:59:55.149Z,18.24
2023-05-09T21:02:21.868Z,18.21
2023-05-09T21:04:48.465Z,18.16
2023-05-09T21:07:19.054Z,18.10
2023-05-09T21:09:48.449Z,18.06
2023-05-09T21:12:15.017Z,18.03
2023-05-09T21:14:41.562Z,18.01
2023-05-09T21:17:08.176Z,17.99
2023-05-09T21:19:34.660Z,17.96
2023-05-09T21:22:01.194Z,17.93
2023-05-09T21:24:27.695Z,17.92
2023-05-09T21:26:54.157Z,17.91
2023-05-09T21:29:20.624Z,17.89
2023-05-09T21:31:47.075Z,17.88
2023-05-09T21:34:13.712Z,17.85
2023-05-09T21:36:40.547Z,17.82
2023-05-09T21:39:11.720Z,17.79
2023-05-09T21:41:39.987Z,17.77
2023-05-09T21:44:07.781Z,17.75
2023-05-09T21:46:35.482Z,17.73
2023-05-09T21:49:02.185Z,17.73
2023-05-09T21:51:29.205Z,17.72
2023-05-09T21:53:55.939Z,17.70
2023-05-09T21:56:22.687Z,17.68
2023-05-09T21:58:49.246Z,17.67
2023-05-09T22:01:16.775Z,17.66
2023-05-09T22:03:43.456Z,17.63
2023-05-09T22:06:10.022Z,17.63
2023-05-09T22:08:36.597Z,17.62
2023-05-09T22:11:03.276Z,17.61
2023-05-09T22:13:29.808Z,17.60
2023-05-09T22:15:56.632Z,17.57
2023-05-09T22:18:23.154Z,17.59
2023-05-09T22:20:49.629Z,17.57
2023-05-09T22:23:16.103Z,17.56
2023-05-09T22:25:42.634Z,17.56
2023-05-09T22:28:09.231Z,17.54
2023-05-09T22:30:36.125Z,17.54
2023-05-09T22:33:02.804Z,17.53
2023-05-09T22:35:29.512Z,17.51
2023-05-09T22:37:56.562Z,17.51
2023-05-09T22:40:23.134Z,17.49
2023-05-09T22:42:49.619Z,17.48
2023-05-09T22:45:16.158Z,17.46
2023-05-09T22:47:42.732Z,17.46
2023-05-09T22:50:10.471Z,17.45
2023-05-09T22:52:36.938Z,17.44
2023-05-09T22:55:03.709Z,17.46
2023-05-09T22:57:30.750Z,17.43
2023-05-09T22:59:57.217Z,17.44
2023-05-09T23:02:23.806Z,17.43
2023-05-09T23:04:50.386Z,17.41
2023-05-09T23:07:16.885Z,17.41
2023-05-09T23:09:43.450Z,17.41
2023-05-09T23:12:10.616Z,17.40
2023-05-09T23:14:37.193Z,17.39
2023-05-09T23:17:03.693Z,17.39
2023-05-09T23:19:30.180Z,17.38
2023-05-09T23:21:58.964Z,17.36
2023-05-09T23:24:25.567Z,17.35
2023-05-09T23:26:52.064Z,17.36
2023-05-09T23:29:18.530Z,17.34
2023-05-09T23:31:45.021Z,17.34
2023-05-09T23:34:11.563Z,17.35
2023-05-09T23:36:38.080Z,17.32
2023-05-09T23:39:04.709Z,17.32
2023-05-09T23:41:31.221Z,17.32
2023-05-09T23:44:01.876Z,17.32
2023-05-09T23:46:28.490Z,17.31
2023-05-09T23:48:55.666Z,17.30
2023-05-09T23:51:22.693Z,17.29
2023-05-09T23:53:49.427Z,17.28
2023-05-09T23:56:16.030Z,17.28
2023-05-09T23:58:43.100Z,17.28
